createdAt,value
2018-07-10T00:03:21.045Z,93.80
2018-07-10T00:07:43.334Z,93.70
2018-07-10T00:10:04.246Z,93.90
2018-07-10T00:12:06.343Z,94.40
2018-07-10T00:14:08.499Z,93.70
2018-07-10T00:16:10.584Z,93.70
2018-07-10T00:18:12.688Z,93.70
2018-07-10T00:20:14.781Z,94.10
2018-07-10T00:22:16.873Z,94.30
2018-07-10T00:24:18.969Z,94.60
2018-07-10T00:26:21.241Z,94.60
2018-07-10T00:28:23.354Z,94.20
2018-07-10T00:30:25.648Z,94.10
2018-07-10T00:32:27.773Z,94.00
2018-07-10T00:34:29.901Z,94.10
2018-07-10T00:36:32.028Z,93.50
2018-07-10T00:38:45.694Z,94.00
2018-07-10T00:40:47.814Z,94.10
2018-07-10T00:42:49.915Z,94.40
2018-07-10T00:44:52.278Z,94.30
2018-07-10T00:46:54.394Z,94.50
2018-07-10T00:48:56.545Z,94.70
2018-07-10T00:50:58.678Z,94.60
2018-07-10T00:53:04.786Z,94.60
2018-07-10T00:55:06.926Z,94.10
2018-07-10T00:57:09.047Z,94.00
2018-07-10T00:59:11.154Z,94.00
2018-07-10T01:01:13.290Z,93.60
2018-07-10T01:03:15.401Z,93.80
2018-07-10T01:05:17.506Z,93.70
2018-07-10T01:07:19.617Z,94.30
2018-07-10T01:09:21.733Z,94.80
2018-07-10T01:11:23.838Z,94.70
2018-07-10T01:13:26.096Z,94.90
2018-07-10T01:15:28.310Z,94.80
2018-07-10T01:17:30.374Z,94.90
2018-07-10T01:19:32.486Z,95.30
2018-07-10T01:21:34.601Z,95.50
2018-07-10T01:23:37.265Z,95.90
2018-07-10T01:25:39.401Z,96.00
2018-07-10T01:27:41.769Z,95.70
2018-07-10T01:29:47.805Z,95.60
2018-07-10T01:31:51.653Z,95.40
2018-07-10T01:33:53.782Z,95.90
2018-07-10T01:35:56.151Z,96.00
2018-07-10T01:37:58.265Z,96.40
2018-07-10T01:40:01.721Z,96.00
2018-07-10T01:42:03.834Z,96.20
2018-07-10T01:44:06.247Z,97.00
2018-07-10T01:46:08.376Z,97.30
2018-07-10T01:48:10.521Z,97.30
2018-07-10T01:50:12.647Z,97.80
2018-07-10T01:52:14.778Z,97.90
2018-07-10T01:54:17.727Z,98.30
2018-07-10T01:56:19.902Z,98.30
2018-07-10T01:58:22.043Z,98.30
2018-07-10T02:00:37.610Z,98.30
2018-07-10T02:02:39.757Z,98.30
2018-07-10T02:04:41.885Z,98.30
2018-07-10T02:06:43.989Z,98.30
2018-07-10T02:08:46.120Z,98.30
2018-07-10T02:10:48.509Z,98.30
2018-07-10T02:12:50.616Z,98.30
2018-07-10T02:14:52.727Z,98.30
2018-07-10T02:16:54.846Z,98.30
2018-07-10T02:18:56.981Z,98.30
2018-07-10T02:21:02.227Z,98.30
2018-07-10T02:23:04.391Z,98.30
2018-07-10T02:25:06.457Z,98.30
2018-07-10T02:27:08.594Z,98.30
2018-07-10T02:29:10.761Z,98.30
2018-07-10T02:31:12.869Z,98.30
2018-07-10T02:33:15.027Z,98.30
2018-07-10T02:35:17.172Z,98.30
2018-07-10T02:37:19.578Z,98.30
2018-07-10T02:39:21.704Z,98.30
2018-07-10T02:41:24.042Z,98.30
2018-07-10T02:43:26.578Z,98.30
2018-07-10T02:45:28.718Z,98.30
2018-07-10T02:47:31.119Z,98.30
2018-07-10T02:49:33.333Z,98.30
2018-07-10T02:51:36.050Z,98.30
2018-07-10T02:53:40.717Z,98.30
2018-07-10T02:55:43.607Z,98.30
2018-07-10T02:57:45.726Z,97.30
2018-07-10T02:59:47.875Z,97.30
2018-07-10T03:01:50.036Z,97.80
2018-07-10T03:03:52.154Z,98.20
2018-07-10T03:05:54.297Z,97.90
2018-07-10T03:07:56.385Z,98.10
2018-07-10T03:09:59.486Z,97.70
2018-07-10T03:12:02.811Z,98.00
2018-07-10T03:14:06.576Z,98.00
2018-07-10T03:16:08.719Z,98.00
2018-07-10T03:18:12.485Z,98.30
2018-07-10T03:20:14.650Z,98.30
2018-07-10T03:22:16.857Z,98.30
2018-07-10T03:24:18.973Z,98.30
2018-07-10T03:26:21.078Z,98.30
2018-07-10T03:28:23.193Z,97.70
2018-07-10T03:30:25.358Z,97.50
2018-07-10T03:32:27.545Z,98.10
2018-07-10T03:34:29.753Z,98.30
2018-07-10T03:36:32.146Z,98.30
2018-07-10T03:38:34.266Z,98.30
2018-07-10T03:40:36.401Z,98.30
2018-07-10T03:42:39.049Z,98.30
2018-07-10T03:44:43.369Z,98.30
2018-07-10T03:46:45.478Z,98.30
2018-07-10T03:48:48.001Z,98.30
2018-07-10T03:50:50.114Z,98.30
2018-07-10T03:52:53.028Z,98.30
2018-07-10T03:54:56.696Z,97.90
2018-07-10T03:56:58.793Z,98.30
2018-07-10T03:59:00.910Z,98.30
2018-07-10T04:01:03.051Z,98.30
2018-07-10T04:03:05.180Z,98.30
2018-07-10T04:05:07.303Z,98.30
2018-07-10T04:07:09.418Z,98.10
2018-07-10T04:09:11.599Z,97.80
2018-07-10T04:11:13.683Z,98.20
2018-07-10T04:13:17.621Z,98.30
2018-07-10T04:15:19.769Z,98.30
2018-07-10T04:17:26.701Z,98.30
2018-07-10T04:19:29.409Z,98.30
2018-07-10T04:21:32.362Z,98.30
2018-07-10T04:23:37.322Z,97.80
2018-07-10T04:25:39.459Z,98.30
2018-07-10T04:27:46.674Z,98.00
2018-07-10T04:30:04.121Z,97.50
2018-07-10T04:32:08.003Z,97.20
2018-07-10T04:34:10.127Z,98.30
2018-07-10T04:36:12.289Z,97.40
2018-07-10T04:38:17.153Z,97.50
2018-07-10T04:40:19.801Z,97.30
2018-07-10T04:42:23.761Z,97.50
2018-07-10T04:44:30.837Z,97.90
2018-07-10T04:46:35.691Z,96.90
2018-07-10T04:48:40.382Z,96.70
2018-07-10T04:50:44.932Z,97.00
2018-07-10T04:52:57.494Z,96.50
2018-07-10T04:55:07.464Z,96.20
2018-07-10T04:57:13.906Z,96.50
2018-07-10T04:59:16.022Z,96.00
2018-07-10T05:01:18.148Z,96.10
2018-07-10T05:03:20.262Z,96.40
2018-07-10T05:05:22.790Z,95.50
2018-07-10T05:07:24.917Z,95.40
2018-07-10T05:09:27.037Z,95.10
2018-07-10T05:11:29.593Z,95.00
2018-07-10T05:13:31.732Z,95.10
2018-07-10T05:15:35.645Z,95.30
2018-07-10T05:17:37.827Z,95.30
2018-07-10T05:19:39.958Z,95.20
2018-07-10T05:21:42.065Z,95.10
2018-07-10T05:23:44.956Z,95.20
2018-07-10T05:25:50.139Z,95.10
2018-07-10T05:27:52.754Z,95.50
2018-07-10T05:29:55.939Z,94.60
2018-07-10T05:31:58.070Z,94.70
2018-07-10T05:34:00.836Z,95.30
2018-07-10T05:36:03.015Z,94.50
2018-07-10T05:38:05.218Z,94.10
2018-07-10T05:40:09.056Z,94.30
2018-07-10T05:42:11.578Z,94.80
2018-07-10T05:44:18.128Z,93.80
2018-07-10T05:46:21.573Z,94.70
2018-07-10T05:48:23.686Z,95.30
2018-07-10T05:50:29.726Z,95.20
2018-07-10T05:52:31.824Z,94.30
2018-07-10T05:54:36.240Z,93.90
2018-07-10T05:56:38.366Z,92.70
2018-07-10T06:01:18.383Z,94.90
2018-07-10T06:03:20.516Z,95.00
2018-07-10T06:05:23.124Z,94.30
2018-07-10T06:07:25.297Z,94.30
2018-07-10T06:09:27.394Z,93.50
2018-07-10T06:11:29.511Z,94.70
2018-07-10T06:13:31.628Z,96.20
2018-07-10T06:15:33.813Z,94.60
2018-07-10T06:17:36.117Z,95.60
2018-07-10T06:19:39.237Z,96.20
2018-07-10T06:21:45.965Z,97.00
2018-07-10T06:23:48.141Z,96.20
2018-07-10T06:25:50.363Z,96.20
2018-07-10T06:28:11.340Z,96.80
2018-07-10T06:30:13.736Z,97.10
2018-07-10T06:32:20.687Z,95.10
2018-07-10T06:34:33.445Z,94.70
2018-07-10T06:36:39.950Z,95.30
2018-07-10T06:38:46.181Z,95.50
2018-07-10T06:40:50.859Z,95.60
2018-07-10T06:43:02.622Z,95.70
2018-07-10T06:45:05.584Z,95.90
2018-07-10T06:47:19.455Z,95.80
2018-07-10T06:49:26.846Z,95.40
2018-07-10T06:51:29.248Z,95.20
2018-07-10T06:53:31.575Z,94.50
2018-07-10T06:55:42.900Z,94.10
2018-07-10T06:57:47.860Z,93.90
2018-07-10T06:59:50.794Z,93.20
2018-07-10T07:01:53.014Z,93.10
2018-07-10T07:04:00.086Z,93.60
2018-07-10T07:06:02.269Z,93.70
2018-07-10T07:08:04.579Z,93.20
2018-07-10T07:10:08.902Z,92.70
2018-07-10T07:12:12.011Z,94.10
2018-07-10T07:14:14.352Z,93.40
2018-07-10T07:16:16.578Z,95.60
2018-07-10T07:18:18.991Z,97.10
2018-07-10T07:20:22.929Z,95.80
2018-07-10T07:22:25.263Z,94.90
2018-07-10T07:24:28.203Z,93.00
2018-07-10T07:26:30.529Z,93.50
2018-07-10T07:28:32.894Z,92.00
2018-07-10T07:30:35.258Z,91.60
2018-07-10T07:32:53.333Z,90.30
2018-07-10T07:35:04.955Z,91.30
2018-07-10T07:37:09.195Z,91.10
2018-07-10T07:39:18.544Z,92.10
2018-07-10T07:41:27.201Z,92.40
2018-07-10T07:43:32.985Z,92.50
2018-07-10T07:45:38.799Z,91.10
2018-07-10T07:47:44.980Z,90.80
2018-07-10T07:49:51.368Z,90.60
2018-07-10T07:52:03.120Z,89.40
2018-07-10T07:54:14.487Z,89.80
2018-07-10T07:56:20.013Z,89.30
2018-07-10T09:02:17.384Z,84.00
2018-07-10T09:09:41.414Z,81.10
2018-07-10T09:11:50.078Z,81.20
2018-07-10T09:13:57.643Z,79.70
2018-07-10T09:23:56.394Z,80.80
2018-07-10T09:42:12.736Z,80.90
2018-07-10T09:44:58.574Z,79.70
2018-07-10T09:47:11.042Z,78.00
2018-07-10T09:49:14.854Z,76.20
2018-07-10T09:51:19.345Z,76.10
2018-07-10T09:53:23.308Z,75.80
2018-07-10T09:55:26.886Z,76.30
2018-07-10T09:57:32.549Z,76.50
2018-07-10T09:59:35.839Z,75.50
2018-07-10T10:01:39.352Z,75.40
2018-07-10T10:03:42.589Z,74.60
2018-07-10T10:05:47.344Z,73.90
2018-07-10T10:14:36.085Z,75.10
2018-07-10T10:16:38.939Z,75.30
2018-07-10T10:18:42.645Z,74.50
2018-07-10T10:20:45.955Z,74.40
2018-07-10T10:22:48.791Z,73.80
2018-07-10T10:24:52.694Z,73.50
2018-07-10T10:26:57.284Z,73.00
2018-07-10T10:29:00.535Z,73.00
2018-07-10T10:31:03.294Z,72.00
2018-07-10T10:33:21.935Z,71.80
2018-07-10T10:35:26.113Z,72.50
2018-07-10T10:37:30.057Z,71.40
2018-07-10T10:39:33.312Z,71.40
2018-07-10T10:41:37.161Z,70.20
2018-07-10T10:43:39.906Z,70.40
2018-07-10T10:45:47.502Z,70.00
2018-07-10T10:48:19.926Z,70.20
2018-07-10T10:50:28.203Z,70.40
2018-07-10T11:07:23.496Z,71.70
2018-07-10T11:09:27.727Z,67.90
2018-07-10T11:11:31.602Z,67.60
2018-07-10T11:13:34.514Z,68.10
2018-07-10T11:15:42.750Z,68.40
2018-07-10T11:17:50.700Z,69.40
2018-07-10T11:19:59.158Z,69.40
2018-07-10T11:22:04.856Z,68.80
2018-07-10T11:24:07.100Z,67.90
2018-07-10T11:26:18.023Z,68.00
2018-07-10T11:28:20.998Z,68.80
2018-07-10T11:30:23.303Z,68.30
2018-07-10T11:32:25.835Z,68.60
2018-07-10T11:34:28.051Z,68.10
2018-07-10T11:36:30.426Z,67.50
2018-07-10T11:38:32.665Z,67.70
2018-07-10T11:40:35.600Z,68.00
2018-07-10T11:42:38.423Z,67.60
2018-07-10T11:44:40.786Z,68.40
2018-07-10T11:46:43.038Z,69.10
2018-07-10T11:48:45.330Z,69.50
2018-07-10T11:50:47.610Z,69.50
2018-07-10T11:52:49.920Z,70.70
2018-07-10T11:54:52.241Z,72.30
2018-07-10T11:56:54.565Z,70.40
2018-07-10T11:58:56.797Z,70.90
2018-07-10T12:00:59.038Z,70.30
2018-07-10T12:03:04.242Z,71.70
2018-07-10T12:05:06.652Z,70.80
2018-07-10T12:07:08.905Z,69.50
2018-07-10T12:09:11.124Z,67.50
2018-07-10T12:11:15.531Z,68.20
2018-07-10T12:13:17.927Z,67.50
2018-07-10T12:15:20.733Z,68.10
2018-07-10T12:17:22.923Z,67.80
2018-07-10T12:19:25.211Z,66.40
2018-07-10T12:21:27.521Z,65.40
2018-07-10T12:23:30.662Z,65.10
2018-07-10T12:25:34.894Z,64.20
2018-07-10T12:27:37.143Z,62.40
2018-07-10T12:29:39.591Z,62.10
2018-07-10T12:31:41.895Z,63.50
2018-07-10T12:33:44.113Z,63.20
2018-07-10T12:35:46.323Z,65.80
2018-07-10T12:37:48.555Z,65.20
2018-07-10T12:39:50.791Z,62.40
2018-07-10T12:41:53.181Z,62.00
2018-07-10T12:43:55.458Z,63.20
2018-07-10T12:45:57.740Z,65.20
2018-07-10T12:48:00.419Z,66.10
2018-07-10T12:50:02.727Z,66.10
2018-07-10T12:52:05.020Z,65.40
2018-07-10T12:54:07.447Z,64.20
2018-07-10T12:56:10.639Z,63.10
2018-07-10T12:58:12.981Z,60.50
2018-07-10T13:00:15.351Z,61.70
2018-07-10T13:02:17.983Z,58.90
2018-07-10T13:04:20.424Z,56.70
2018-07-10T13:06:23.706Z,55.00
2018-07-10T13:08:26.266Z,53.20
2018-07-10T13:10:28.661Z,56.20
2018-07-10T13:12:31.274Z,54.10
2018-07-10T13:14:33.938Z,52.90
2018-07-10T13:16:36.278Z,51.30
2018-07-10T13:18:39.812Z,50.20
2018-07-10T13:20:42.176Z,51.70
2018-07-10T13:22:44.463Z,49.20
2018-07-10T13:24:46.864Z,50.50
2018-07-10T13:29:26.259Z,55.80
2018-07-10T13:31:29.166Z,54.00
2018-07-10T13:33:31.462Z,53.30
2018-07-10T13:35:35.079Z,51.20
2018-07-10T13:37:39.688Z,49.60
2018-07-10T13:39:42.628Z,47.40
2018-07-10T13:41:45.191Z,51.30
2018-07-10T13:43:47.412Z,56.30
2018-07-10T13:45:49.673Z,60.50
2018-07-10T13:47:51.901Z,62.60
2018-07-10T13:49:54.154Z,63.90
2018-07-10T13:51:56.398Z,65.00
2018-07-10T13:53:58.596Z,66.10
2018-07-10T13:56:00.773Z,66.40
2018-07-10T13:58:35.167Z,66.50
2018-07-10T14:00:39.999Z,66.80
2018-07-10T14:02:43.231Z,67.60
2018-07-10T14:04:45.375Z,68.30
2018-07-10T14:06:47.900Z,68.90
2018-07-10T14:08:50.135Z,68.50
2018-07-10T14:10:52.387Z,66.90
2018-07-10T14:12:54.740Z,66.80
2018-07-10T14:14:57.138Z,66.80
2018-07-10T14:16:59.423Z,65.60
2018-07-10T14:19:01.802Z,66.10
2018-07-10T14:21:05.145Z,65.40
2018-07-10T14:23:07.375Z,65.90
2018-07-10T14:25:09.546Z,65.90
2018-07-10T14:27:11.762Z,66.60
2018-07-10T14:29:13.996Z,65.60
2018-07-10T14:31:16.227Z,66.40
2018-07-10T14:33:18.966Z,65.70
2018-07-10T14:35:21.190Z,64.70
2018-07-10T14:37:23.415Z,65.20
2018-07-10T14:39:25.805Z,65.00
2018-07-10T14:41:28.188Z,66.00
2018-07-10T14:43:33.267Z,66.70
2018-07-10T14:45:35.506Z,66.20
2018-07-10T14:47:37.690Z,66.60
2018-07-10T14:49:40.121Z,66.70
2018-07-10T14:51:43.551Z,66.90
2018-07-10T14:53:46.022Z,67.30
2018-07-10T14:55:48.259Z,67.20
2018-07-10T14:57:50.518Z,66.60
2018-07-10T14:59:52.768Z,67.00
2018-07-10T15:01:55.075Z,66.90
2018-07-10T15:03:57.370Z,67.10
2018-07-10T15:05:59.594Z,67.40
2018-07-10T15:08:02.028Z,67.00
2018-07-10T15:10:04.299Z,66.90
2018-07-10T15:12:06.485Z,66.30
2018-07-10T15:14:10.019Z,66.50
2018-07-10T15:16:12.232Z,66.70
2018-07-10T15:20:42.220Z,66.50
2018-07-10T15:22:44.513Z,66.40
2018-07-10T15:24:46.752Z,66.40
2018-07-10T15:26:49.047Z,66.10
2018-07-10T15:28:51.574Z,66.30
2018-07-10T15:30:53.831Z,66.00
2018-07-10T15:32:56.042Z,66.50
2018-07-10T15:34:58.343Z,66.80
2018-07-10T15:37:01.043Z,67.60
2018-07-10T15:39:03.970Z,69.10
2018-07-10T15:41:06.494Z,69.20
2018-07-10T15:43:08.801Z,69.40
2018-07-10T15:45:10.986Z,69.70
2018-07-10T15:47:13.262Z,69.80
2018-07-10T15:49:15.459Z,70.00
2018-07-10T15:51:17.722Z,70.20
2018-07-10T15:53:19.974Z,70.60
2018-07-10T15:57:56.564Z,70.70
2018-07-10T15:59:58.921Z,70.70
2018-07-10T16:02:01.354Z,70.60
2018-07-10T16:04:07.307Z,70.50
2018-07-10T16:06:33.352Z,70.50
2018-07-10T16:08:36.668Z,70.50
2018-07-10T16:10:39.491Z,70.40
2018-07-10T16:12:43.066Z,70.10
2018-07-10T16:14:45.539Z,70.00
2018-07-10T16:16:48.103Z,70.00
2018-07-10T16:18:56.906Z,70.10
2018-07-10T16:21:01.212Z,70.00
2018-07-10T16:23:03.871Z,69.90
2018-07-10T16:25:11.276Z,69.80
2018-07-10T16:27:22.830Z,69.40
2018-07-10T16:29:25.182Z,69.40
2018-07-10T16:31:27.746Z,69.40
2018-07-10T16:33:31.634Z,69.30
2018-07-10T16:35:34.332Z,69.50
2018-07-10T16:37:36.811Z,69.90
2018-07-10T16:39:40.049Z,70.20
2018-07-10T16:41:48.782Z,70.60
2018-07-10T16:43:51.106Z,70.50
2018-07-10T16:45:54.315Z,70.70
2018-07-10T16:48:12.556Z,70.90
2018-07-10T16:50:14.955Z,70.70
2018-07-10T16:52:23.080Z,70.50
2018-07-10T16:54:25.324Z,71.00
2018-07-10T16:56:27.693Z,70.70
2018-07-10T16:58:32.196Z,70.90
2018-07-10T17:00:34.394Z,70.80
2018-07-10T17:02:36.659Z,70.70
2018-07-10T17:04:38.927Z,71.00
2018-07-10T17:06:41.236Z,71.40
2018-07-10T17:08:43.582Z,71.30
2018-07-10T17:10:45.823Z,71.20
2018-07-10T17:12:48.236Z,71.00
2018-07-10T17:14:55.841Z,71.40
2018-07-10T17:16:58.222Z,71.40
2018-07-10T17:19:00.772Z,71.80
2018-07-10T17:21:03.042Z,72.00
2018-07-10T17:23:06.342Z,72.10
2018-07-10T17:25:10.229Z,71.70
2018-07-10T17:27:12.510Z,71.60
2018-07-10T17:29:15.083Z,71.90
2018-07-10T17:31:18.407Z,72.00
2018-07-10T17:33:20.763Z,71.50
2018-07-10T17:35:29.886Z,71.30
2018-07-10T17:37:48.671Z,71.20
2018-07-10T17:39:51.034Z,70.50
2018-07-10T17:41:53.319Z,70.70
2018-07-10T17:43:55.663Z,70.70
2018-07-10T17:46:06.642Z,70.50
2018-07-10T17:48:08.972Z,70.70
2018-07-10T17:50:13.616Z,70.50
2018-07-10T17:52:16.430Z,70.70
2018-07-10T17:54:18.831Z,70.70
2018-07-10T17:56:22.297Z,70.00
2018-07-10T17:58:24.705Z,70.00
2018-07-10T18:00:27.034Z,70.30
2018-07-10T18:02:30.038Z,70.40
2018-07-10T18:04:32.353Z,70.70
2018-07-10T18:06:35.353Z,71.10
2018-07-10T18:08:37.653Z,70.90
2018-07-10T18:10:40.151Z,70.90
2018-07-10T18:12:42.520Z,70.40
2018-07-10T18:14:44.848Z,70.40
2018-07-10T18:16:47.229Z,70.70
2018-07-10T18:18:49.498Z,71.20
2018-07-10T18:20:51.950Z,71.40
2018-07-10T18:22:54.216Z,71.40
2018-07-10T18:24:56.547Z,71.00
2018-07-10T18:29:09.090Z,70.90
2018-07-10T18:31:11.647Z,71.60
2018-07-10T18:33:14.382Z,71.50
2018-07-10T18:35:17.236Z,71.40
2018-07-10T18:37:19.681Z,71.50
2018-07-10T18:39:22.237Z,71.50
2018-07-10T18:41:24.878Z,71.80
2018-07-10T18:43:27.416Z,72.00
2018-07-10T18:45:29.989Z,72.60
2018-07-10T18:47:33.171Z,72.70
2018-07-10T18:49:35.679Z,72.90
2018-07-10T18:51:38.545Z,73.70
2018-07-10T18:53:41.984Z,73.90
2018-07-10T18:55:44.583Z,73.90
2018-07-10T18:57:56.187Z,73.90
2018-07-10T19:00:03.079Z,74.40
2018-07-10T19:02:10.313Z,74.60
2018-07-10T19:04:13.490Z,75.10
2018-07-10T19:06:19.457Z,75.30
2018-07-10T19:08:21.940Z,75.60
2018-07-10T19:10:25.119Z,76.00
2018-07-10T19:12:27.487Z,76.20
2018-07-10T19:14:36.065Z,76.40
2018-07-10T19:16:38.324Z,76.50
2018-07-10T19:18:40.809Z,76.60
2018-07-10T19:20:49.062Z,77.00
2018-07-10T19:22:54.062Z,77.00
2018-07-10T19:24:58.110Z,77.20
2018-07-10T19:27:01.303Z,77.30
2018-07-10T19:29:20.806Z,77.40
2018-07-10T19:31:25.918Z,77.60
2018-07-10T19:33:28.245Z,78.00
2018-07-10T19:35:30.830Z,78.00
2018-07-10T19:37:35.158Z,78.30
2018-07-10T19:39:37.503Z,78.60
2018-07-10T19:41:40.114Z,78.70
2018-07-10T19:43:42.358Z,79.00
2018-07-10T19:45:44.835Z,79.00
2018-07-10T19:47:56.372Z,79.20
2018-07-10T19:50:05.987Z,79.60
2018-07-10T19:52:08.257Z,79.60
2018-07-10T19:54:14.645Z,79.50
2018-07-10T19:56:17.824Z,79.80
2018-07-10T19:58:34.213Z,79.90
2018-07-10T20:00:48.502Z,80.20
2018-07-10T20:02:50.813Z,80.30
2018-07-10T20:05:12.339Z,80.50
2018-07-10T20:07:27.722Z,80.60
2018-07-10T20:09:33.850Z,80.80
2018-07-10T20:11:43.622Z,80.70
2018-07-10T20:13:47.157Z,80.90
2018-07-10T20:15:58.526Z,81.10
2018-07-10T20:18:09.025Z,81.30
2018-07-10T20:20:16.682Z,81.00
2018-07-10T20:22:38.010Z,81.20
2018-07-10T20:24:43.550Z,81.50
2018-07-10T20:26:56.650Z,81.40
2018-07-10T22:59:59.505Z,82.40
2018-07-10T23:02:01.590Z,85.50
2018-07-10T23:04:03.707Z,85.60
2018-07-10T23:06:05.841Z,85.90
2018-07-10T23:08:07.953Z,85.50
2018-07-10T23:10:10.058Z,85.70
2018-07-10T23:12:12.169Z,85.60
2018-07-10T23:14:14.361Z,85.60
2018-07-10T23:16:35.907Z,85.60
2018-07-10T23:18:38.106Z,86.00
2018-07-10T23:20:40.214Z,86.00
2018-07-10T23:22:52.962Z,86.20
2018-07-10T23:24:55.094Z,86.00
2018-07-10T23:26:57.381Z,85.80
2018-07-10T23:28:59.505Z,85.90
2018-07-10T23:31:02.706Z,86.00
2018-07-10T23:33:05.606Z,86.30
2018-07-10T23:35:07.733Z,86.10
2018-07-10T23:37:12.046Z,86.40
2018-07-10T23:39:15.369Z,86.40
2018-07-10T23:41:28.961Z,86.40
2018-07-10T23:43:40.065Z,86.50
2018-07-10T23:45:42.158Z,86.40
2018-07-10T23:47:45.158Z,86.70
2018-07-10T23:49:50.596Z,87.20
2018-07-10T23:52:04.216Z,86.90
2018-07-10T23:54:06.330Z,87.00
2018-07-10T23:56:08.615Z,87.00
2018-07-10T23:58:10.862Z,87.00
